createdAt,value
2017-11-16T00:00:17.490Z,101.80
2017-11-16T00:02:44.994Z,94.80
2017-11-16T00:05:12.490Z,98.67
2017-11-16T00:07:40.232Z,93.33
2017-11-16T00:10:07.787Z,112.77
2017-11-16T00:12:35.285Z,112.90
2017-11-16T00:15:02.829Z,114.80
2017-11-16T00:17:30.330Z,109.80
2017-11-16T00:19:57.827Z,106.40
2017-11-16T00:22:25.366Z,129.90
2017-11-16T00:24:52.865Z,128.77
2017-11-16T00:27:20.360Z,115.63
2017-11-16T00:29:47.910Z,109.37
2017-11-16T00:32:15.408Z,120.73
2017-11-16T00:34:42.973Z,114.53
2017-11-16T00:37:10.608Z,132.87
2017-11-16T00:39:38.110Z,122.00
2017-11-16T00:42:05.613Z,111.43
2017-11-16T00:44:33.289Z,114.07
2017-11-16T00:47:00.784Z,127.13
2017-11-16T00:49:28.303Z,124.27
2017-11-16T00:51:55.890Z,118.97
2017-11-16T00:54:23.393Z,131.50
2017-11-16T00:56:50.908Z,126.30
2017-11-16T00:59:18.466Z,142.43
2017-11-16T01:01:46.027Z,135.87
2017-11-16T01:04:13.523Z,139.67
2017-11-16T01:06:41.069Z,149.17
2017-11-16T01:09:08.578Z,143.57
2017-11-16T01:11:36.145Z,138.80
2017-11-16T01:14:03.808Z,144.13
2017-11-16T01:16:31.355Z,138.53
2017-11-16T01:18:58.853Z,146.73
2017-11-16T01:21:26.607Z,138.83
2017-11-16T01:23:54.122Z,148.53
2017-11-16T01:26:21.705Z,120.60
2017-11-16T01:28:49.284Z,134.30
2017-11-16T01:31:16.784Z,129.83
2017-11-16T01:33:44.280Z,131.67
2017-11-16T01:36:11.840Z,107.47
2017-11-16T01:38:39.339Z,104.97
2017-11-16T01:41:06.825Z,96.83
2017-11-16T01:43:34.352Z,99.83
2017-11-16T01:46:01.853Z,100.63
2017-11-16T01:48:29.342Z,87.90
2017-11-16T01:50:56.893Z,99.60
2017-11-16T01:53:24.384Z,97.87
2017-11-16T01:55:51.884Z,84.80
2017-11-16T01:58:19.446Z,92.10
2017-11-16T02:00:46.937Z,88.27
2017-11-16T02:03:14.430Z,76.53
2017-11-16T02:05:41.962Z,82.13
2017-11-16T02:08:09.491Z,75.27
2017-11-16T02:10:36.990Z,72.87
2017-11-16T02:13:04.518Z,77.63
2017-11-16T02:15:32.080Z,81.10
2017-11-16T02:17:59.579Z,83.67
2017-11-16T02:20:27.183Z,86.10
2017-11-16T02:22:54.685Z,81.47
2017-11-16T02:25:22.176Z,79.57
2017-11-16T02:27:49.774Z,89.10
2017-11-16T02:30:17.269Z,79.70
2017-11-16T02:32:44.781Z,105.93
2017-11-16T02:35:12.354Z,107.83
2017-11-16T02:37:39.845Z,101.83
2017-11-16T02:40:07.354Z,90.77
2017-11-16T02:42:34.937Z,98.53
2017-11-16T02:45:02.460Z,85.90
2017-11-16T02:47:29.973Z,100.10
2017-11-16T02:49:57.520Z,99.97
2017-11-16T02:52:25.025Z,105.50
2017-11-16T02:54:52.525Z,108.90
2017-11-16T02:57:20.163Z,93.03
2017-11-16T02:59:48.472Z,90.20
2017-11-16T03:02:15.969Z,105.40
2017-11-16T03:04:43.679Z,95.20
2017-11-16T03:07:11.167Z,95.10
2017-11-16T03:09:38.657Z,88.00
2017-11-16T03:12:06.203Z,90.80
2017-11-16T03:14:33.767Z,87.20
2017-11-16T03:17:01.272Z,107.20
2017-11-16T03:19:28.819Z,97.60
2017-11-16T03:21:56.321Z,99.93
2017-11-16T03:24:23.822Z,90.03
2017-11-16T03:26:51.393Z,107.77
2017-11-16T03:29:18.903Z,94.03
2017-11-16T03:31:46.409Z,93.70
2017-11-16T03:34:13.973Z,107.87
2017-11-16T03:36:41.527Z,96.17
2017-11-16T03:39:09.103Z,106.20
2017-11-16T03:41:36.663Z,104.63
2017-11-16T03:44:04.270Z,110.80
2017-11-16T03:46:31.781Z,110.70
2017-11-16T03:48:59.322Z,110.70
2017-11-16T03:51:26.834Z,120.63
2017-11-16T03:53:54.334Z,116.77
2017-11-16T03:56:21.897Z,110.03
2017-11-16T03:58:49.400Z,107.43
2017-11-16T04:01:16.898Z,113.73
2017-11-16T04:03:44.443Z,113.43
2017-11-16T04:06:11.948Z,89.47
2017-11-16T04:08:39.454Z,121.83
2017-11-16T04:11:07.142Z,109.90
2017-11-16T04:13:34.647Z,113.17
2017-11-16T04:16:02.161Z,115.77
2017-11-16T04:18:29.934Z,113.77
2017-11-16T04:20:57.432Z,125.07
2017-11-16T04:23:24.928Z,119.00
2017-11-16T04:25:52.460Z,114.00
2017-11-16T04:28:19.953Z,137.60
2017-11-16T04:30:47.458Z,133.60
2017-11-16T04:33:15.081Z,147.67
2017-11-16T04:35:42.586Z,154.57
2017-11-16T04:38:10.089Z,168.13
2017-11-16T04:40:37.660Z,163.47
2017-11-16T04:43:05.173Z,148.30
2017-11-16T04:45:32.678Z,175.23
2017-11-16T04:48:00.206Z,172.07
2017-11-16T04:50:27.711Z,159.20
2017-11-16T04:52:55.253Z,158.07
2017-11-16T04:55:22.757Z,150.20
2017-11-16T04:57:50.255Z,167.87
2017-11-16T05:00:17.777Z,170.17
2017-11-16T05:02:45.285Z,144.40
2017-11-16T05:05:12.787Z,154.00
2017-11-16T05:07:40.421Z,149.57
2017-11-16T05:10:07.960Z,140.23
2017-11-16T05:12:35.524Z,142.37
2017-11-16T05:15:03.083Z,134.37
2017-11-16T05:17:30.577Z,153.77
2017-11-16T05:19:58.083Z,146.67
2017-11-16T05:22:25.635Z,139.47
2017-11-16T05:24:53.134Z,132.03
2017-11-16T05:27:20.633Z,131.80
2017-11-16T05:29:48.194Z,127.00
2017-11-16T05:32:15.695Z,135.83
2017-11-16T05:37:17.096Z,109.47
2017-11-16T05:39:44.596Z,110.03
2017-11-16T05:42:12.175Z,110.13
2017-11-16T05:44:39.719Z,110.70
2017-11-16T05:47:07.219Z,127.30
2017-11-16T05:49:34.753Z,119.80
2017-11-16T05:52:02.295Z,126.53
2017-11-16T05:54:29.803Z,106.37
2017-11-16T05:56:57.339Z,103.90
2017-11-16T05:59:24.876Z,104.83
2017-11-16T06:01:52.377Z,104.83
2017-11-16T06:04:19.905Z,104.00
2017-11-16T06:06:47.560Z,110.30
2017-11-16T06:09:15.061Z,115.97
2017-11-16T06:11:42.577Z,89.17
2017-11-16T06:14:10.112Z,117.80
2017-11-16T06:16:37.602Z,96.03
2017-11-16T06:19:05.109Z,99.97
2017-11-16T06:21:32.653Z,107.03
2017-11-16T06:24:00.142Z,100.30
2017-11-16T06:26:27.732Z,98.73
2017-11-16T06:28:55.271Z,72.67
2017-11-16T06:31:22.776Z,90.93
2017-11-16T06:33:50.268Z,82.00
2017-11-16T06:36:17.815Z,126.70
2017-11-16T06:38:45.334Z,88.20
2017-11-16T06:41:12.826Z,88.67
2017-11-16T06:43:40.360Z,98.37
2017-11-16T06:46:07.856Z,93.80
2017-11-16T06:48:35.357Z,102.57
2017-11-16T06:51:02.913Z,112.77
2017-11-16T06:53:30.409Z,101.13
2017-11-16T06:55:57.919Z,119.27
2017-11-16T06:58:25.496Z,97.47
2017-11-16T07:00:53.565Z,105.63
2017-11-16T07:03:21.123Z,113.97
2017-11-16T07:05:48.669Z,130.53
2017-11-16T07:08:16.257Z,140.10
2017-11-16T07:10:43.785Z,125.03
2017-11-16T07:13:11.381Z,132.43
2017-11-16T07:15:38.905Z,126.20
2017-11-16T07:18:06.402Z,147.13
2017-11-16T07:20:34.006Z,130.63
2017-11-16T07:23:01.572Z,136.50
2017-11-16T07:25:29.070Z,181.43
2017-11-16T07:27:56.572Z,197.07
2017-11-16T07:30:24.114Z,153.80
2017-11-16T07:32:51.615Z,167.27
2017-11-16T07:35:19.111Z,158.20
2017-11-16T07:37:46.652Z,178.67
2017-11-16T07:40:14.169Z,196.73
2017-11-16T07:42:42.293Z,239.33
2017-11-16T07:45:09.865Z,235.10
2017-11-16T07:47:37.361Z,187.90
2017-11-16T07:50:04.870Z,173.97
2017-11-16T07:52:32.408Z,226.27
2017-11-16T07:54:59.905Z,177.40
2017-11-16T07:57:27.447Z,167.00
2017-11-16T07:59:54.997Z,159.97
2017-11-16T08:02:22.500Z,150.77
2017-11-16T08:04:49.999Z,145.93
2017-11-16T08:07:17.535Z,140.13
2017-11-16T08:09:45.121Z,140.03
2017-11-16T08:12:12.623Z,142.17
2017-11-16T08:14:40.150Z,139.20
2017-11-16T08:17:07.650Z,158.73
2017-11-16T08:19:35.166Z,193.87
2017-11-16T08:22:02.729Z,184.27
2017-11-16T08:24:30.226Z,177.57
2017-11-16T08:26:57.732Z,172.87
2017-11-16T08:29:25.387Z,176.60
2017-11-16T08:31:52.948Z,210.13
2017-11-16T08:34:20.458Z,181.93
2017-11-16T08:36:47.993Z,188.03
2017-11-16T08:39:15.495Z,203.67
2017-11-16T08:41:43.004Z,207.30
2017-11-16T08:44:10.551Z,215.73
2017-11-16T08:46:38.054Z,217.50
2017-11-16T08:49:05.661Z,232.10
2017-11-16T08:51:33.245Z,221.97
2017-11-16T08:54:00.741Z,226.83
2017-11-16T08:56:28.243Z,249.53
2017-11-16T08:58:55.792Z,233.10
2017-11-16T09:01:23.301Z,251.87
2017-11-16T09:03:50.807Z,212.77
2017-11-16T09:06:18.324Z,216.37
2017-11-16T09:08:45.842Z,189.13
2017-11-16T09:11:13.489Z,199.87
2017-11-16T09:13:41.042Z,216.27
2017-11-16T09:16:08.537Z,193.00
2017-11-16T09:18:36.390Z,174.93
2017-11-16T09:21:03.937Z,187.33
2017-11-16T09:23:31.508Z,190.90
2017-11-16T09:25:59.035Z,160.67
2017-11-16T09:28:26.534Z,165.63
2017-11-16T09:30:54.032Z,155.90
2017-11-16T09:33:21.625Z,171.03
2017-11-16T09:35:49.132Z,167.17
2017-11-16T09:38:16.637Z,154.97
2017-11-16T09:40:44.197Z,145.63
2017-11-16T09:43:11.714Z,153.20
2017-11-16T09:45:39.257Z,170.03
2017-11-16T09:48:06.804Z,174.10
2017-11-16T09:50:34.345Z,166.03
2017-11-16T09:53:01.849Z,145.70
2017-11-16T09:55:29.566Z,150.43
2017-11-16T09:57:57.073Z,160.53
2017-11-16T10:00:24.578Z,159.93
2017-11-16T10:02:52.120Z,162.53
2017-11-16T10:05:19.628Z,166.83
2017-11-16T10:07:47.128Z,148.10
2017-11-16T10:10:14.673Z,161.03
2017-11-16T10:12:42.181Z,166.53
2017-11-16T10:15:09.700Z,156.27
2017-11-16T10:17:37.220Z,164.70
2017-11-16T10:20:04.753Z,150.63
2017-11-16T10:22:32.407Z,168.23
2017-11-16T10:24:59.910Z,183.20
2017-11-16T10:27:27.428Z,175.83
2017-11-16T10:29:54.987Z,178.30
2017-11-16T10:32:22.509Z,161.37
2017-11-16T10:34:50.114Z,172.80
2017-11-16T10:37:17.674Z,149.10
2017-11-16T10:39:45.171Z,157.87
2017-11-16T10:42:12.676Z,144.67
2017-11-16T10:44:40.215Z,150.83
2017-11-16T10:47:07.797Z,141.60
2017-11-16T10:49:35.332Z,131.93
2017-11-16T10:52:02.911Z,152.03
2017-11-16T10:54:30.405Z,167.47
2017-11-16T10:56:57.931Z,156.07
2017-11-16T10:59:25.493Z,147.93
2017-11-16T11:01:52.984Z,144.00
2017-11-16T11:04:20.481Z,141.50
2017-11-16T11:06:48.076Z,136.17
2017-11-16T11:09:15.579Z,125.17
2017-11-16T11:11:43.100Z,133.97
2017-11-16T11:14:10.630Z,108.67
2017-11-16T11:16:38.197Z,115.20
2017-11-16T11:19:05.688Z,123.57
2017-11-16T11:21:33.216Z,121.23
2017-11-16T11:24:00.773Z,112.50
2017-11-16T11:26:28.264Z,103.00
2017-11-16T11:28:55.809Z,122.10
2017-11-16T11:31:23.306Z,109.47
2017-11-16T11:33:50.793Z,90.10
2017-11-16T11:36:18.316Z,94.87
2017-11-16T11:38:46.739Z,92.77
2017-11-16T11:41:14.240Z,96.67
2017-11-16T11:43:41.794Z,91.43
2017-11-16T11:46:09.286Z,84.00
2017-11-16T11:48:36.877Z,83.87
2017-11-16T11:51:04.454Z,84.20
2017-11-16T11:53:31.949Z,92.03
2017-11-16T11:55:59.453Z,76.00
2017-11-16T11:58:27.119Z,71.13
2017-11-16T12:00:54.624Z,78.10
2017-11-16T12:03:22.120Z,73.07
2017-11-16T12:05:49.669Z,80.80
2017-11-16T12:08:17.169Z,76.40
2017-11-16T12:10:44.674Z,70.10
2017-11-16T12:13:12.243Z,64.77
2017-11-16T12:15:39.744Z,62.90
2017-11-16T12:18:07.251Z,66.73
2017-11-16T12:20:34.781Z,61.53
2017-11-16T12:23:02.333Z,62.50
2017-11-16T12:25:29.835Z,60.90
2017-11-16T12:27:57.335Z,50.97
2017-11-16T12:30:24.861Z,58.73
2017-11-16T12:32:52.437Z,47.53
2017-11-16T12:35:19.928Z,57.07
2017-11-16T12:37:47.460Z,47.13
2017-11-16T12:40:14.966Z,53.80
2017-11-16T12:42:42.479Z,58.80
2017-11-16T12:45:10.037Z,50.03
2017-11-16T12:47:37.553Z,45.33
2017-11-16T12:50:05.045Z,49.43
2017-11-16T12:52:32.589Z,51.13
2017-11-16T12:55:00.087Z,42.90
2017-11-16T12:57:27.593Z,44.73
2017-11-16T12:59:55.243Z,56.67
2017-11-16T13:02:22.894Z,48.50
2017-11-16T13:04:50.403Z,52.57
2017-11-16T13:07:17.963Z,47.17
2017-11-16T13:09:45.522Z,44.67
2017-11-16T13:12:13.080Z,48.87
2017-11-16T13:14:40.655Z,61.47
2017-11-16T13:17:08.202Z,66.13
2017-11-16T13:19:35.697Z,64.37
2017-11-16T13:22:03.229Z,51.73
2017-11-16T13:24:30.777Z,56.37
2017-11-16T13:26:58.333Z,46.60
2017-11-16T13:29:25.868Z,43.67
2017-11-16T13:31:53.364Z,45.40
2017-11-16T13:34:20.862Z,52.83
2017-11-16T13:36:48.415Z,49.13
2017-11-16T13:39:15.942Z,40.90
2017-11-16T13:41:43.440Z,43.80
2017-11-16T13:44:10.957Z,43.90
2017-11-16T13:46:38.619Z,45.20
2017-11-16T13:49:06.146Z,39.47
2017-11-16T13:51:33.654Z,39.80
2017-11-16T13:54:01.172Z,43.97
2017-11-16T13:56:28.785Z,41.00
2017-11-16T13:58:56.299Z,39.03
2017-11-16T14:01:23.799Z,41.17
2017-11-16T14:03:51.352Z,42.23
2017-11-16T14:06:18.856Z,46.10
2017-11-16T14:08:46.352Z,57.13
2017-11-16T14:11:13.877Z,41.80
2017-11-16T14:13:41.689Z,46.70
2017-11-16T14:16:09.229Z,51.03
2017-11-16T14:18:36.750Z,46.53
2017-11-16T14:21:04.325Z,37.30
2017-11-16T14:23:31.827Z,41.17
2017-11-16T14:25:59.352Z,42.03
2017-11-16T14:28:26.872Z,47.23
2017-11-16T14:30:54.461Z,39.13
2017-11-16T14:33:22.039Z,38.60
2017-11-16T14:35:49.586Z,33.17
2017-11-16T14:38:17.105Z,37.03
2017-11-16T14:40:44.718Z,36.47
2017-11-16T14:43:12.229Z,37.40
2017-11-16T14:45:39.736Z,41.70
2017-11-16T14:48:07.296Z,35.27
2017-11-16T14:50:34.844Z,38.73
2017-11-16T14:53:02.347Z,47.67
2017-11-16T14:55:29.873Z,41.17
2017-11-16T14:57:57.384Z,42.73
2017-11-16T15:00:24.993Z,41.80
2017-11-16T15:02:52.534Z,38.80
2017-11-16T15:05:20.029Z,45.30
2017-11-16T15:07:47.521Z,59.60
2017-11-16T15:10:15.072Z,52.80
2017-11-16T15:12:42.565Z,39.97
2017-11-16T15:15:10.087Z,47.80
2017-11-16T15:17:37.611Z,39.70
2017-11-16T15:20:05.140Z,54.73
2017-11-16T15:22:32.702Z,47.37
2017-11-16T15:25:00.258Z,50.80
2017-11-16T15:27:27.753Z,48.70
2017-11-16T15:29:55.257Z,45.03
2017-11-16T15:32:22.803Z,55.37
2017-11-16T15:34:50.398Z,47.33
2017-11-16T15:37:17.904Z,49.50
2017-11-16T15:39:45.516Z,54.43
2017-11-16T15:42:13.009Z,45.97
2017-11-16T15:44:40.506Z,52.53
2017-11-16T15:47:08.066Z,43.67
2017-11-16T15:49:35.564Z,62.23
2017-11-16T15:52:03.053Z,72.27
2017-11-16T15:54:30.610Z,233.87
2017-11-16T15:56:58.138Z,89.70
2017-11-16T15:59:25.698Z,50.37
2017-11-16T16:01:53.342Z,197.30
2017-11-16T16:04:20.842Z,98.83
2017-11-16T16:06:48.360Z,335.07
2017-11-16T16:09:15.911Z,201.47
2017-11-16T16:11:43.423Z,134.60
2017-11-16T16:14:10.934Z,66.03
2017-11-16T16:16:38.511Z,68.67
2017-11-16T16:19:06.028Z,60.47
2017-11-16T16:21:33.615Z,48.40
2017-11-16T16:24:01.168Z,51.90
2017-11-16T16:26:28.667Z,38.40
2017-11-16T16:28:56.166Z,30.43
2017-11-16T16:31:23.689Z,37.00
2017-11-16T16:33:51.187Z,34.17
2017-11-16T16:36:18.779Z,34.00
2017-11-16T16:38:46.418Z,29.80
2017-11-16T16:41:13.926Z,31.80
2017-11-16T16:43:41.439Z,31.63
2017-11-16T16:46:08.977Z,31.40
2017-11-16T16:48:36.592Z,33.50
2017-11-16T16:51:04.077Z,30.17
2017-11-16T16:53:31.601Z,30.10
2017-11-16T16:55:59.130Z,39.90
2017-11-16T16:58:26.633Z,39.17
2017-11-16T17:00:54.125Z,44.87
2017-11-16T17:03:21.665Z,40.67
2017-11-16T17:05:49.157Z,45.50
2017-11-16T17:08:16.648Z,39.73
2017-11-16T17:10:44.177Z,45.00
2017-11-16T17:13:11.683Z,45.20
2017-11-16T17:15:39.169Z,66.60
2017-11-16T17:18:06.698Z,37.27
2017-11-16T17:20:34.189Z,47.53
2017-11-16T17:23:01.696Z,37.90
2017-11-16T17:25:29.225Z,41.03
2017-11-16T17:27:56.831Z,38.87
2017-11-16T17:30:24.331Z,55.50
2017-11-16T17:32:51.882Z,36.90
2017-11-16T17:35:19.387Z,39.30
2017-11-16T17:37:46.941Z,39.67
2017-11-16T17:40:14.434Z,34.80
2017-11-16T17:42:41.927Z,36.80
2017-11-16T17:45:09.486Z,36.43
2017-11-16T17:47:36.975Z,46.87
2017-11-16T17:50:04.881Z,35.93
2017-11-16T17:52:32.425Z,33.87
2017-11-16T17:54:59.949Z,35.77
2017-11-16T17:57:27.437Z,35.63
2017-11-16T17:59:54.969Z,34.97
2017-11-16T18:02:22.525Z,38.70
2017-11-16T18:04:50.025Z,44.13
2017-11-16T18:07:17.637Z,38.80
2017-11-16T18:09:45.135Z,42.00
2017-11-16T18:12:12.659Z,42.80
2017-11-16T18:14:40.182Z,42.70
2017-11-16T18:17:07.699Z,44.77
2017-11-16T18:19:35.220Z,46.80
2017-11-16T18:22:02.726Z,52.47
2017-11-16T18:24:30.235Z,43.53
2017-11-16T18:26:57.790Z,42.03
2017-11-16T18:29:25.277Z,51.13
2017-11-16T18:31:52.787Z,46.50
2017-11-16T18:34:20.306Z,38.90
2017-11-16T18:36:47.860Z,45.27
2017-11-16T18:39:15.357Z,52.43
2017-11-16T18:41:42.859Z,46.10
2017-11-16T18:44:10.405Z,57.10
2017-11-16T18:46:37.913Z,56.47
2017-11-16T18:49:05.458Z,52.23
2017-11-16T18:51:33.055Z,44.93
2017-11-16T18:54:00.704Z,46.20
2017-11-16T18:56:28.248Z,53.93
2017-11-16T18:58:55.915Z,45.90
2017-11-16T19:01:23.548Z,45.67
2017-11-16T19:03:51.217Z,42.30
2017-11-16T19:06:18.836Z,46.53
2017-11-16T19:08:46.390Z,42.50
2017-11-16T19:11:14.094Z,44.80
2017-11-16T19:13:41.935Z,45.47
2017-11-16T19:16:09.839Z,44.90
2017-11-16T19:18:37.423Z,49.63
2017-11-16T19:21:05.031Z,41.00
2017-11-16T19:23:32.640Z,47.67
2017-11-16T19:26:00.488Z,49.17
2017-11-16T19:28:28.347Z,61.70
2017-11-16T19:30:56.105Z,46.90
2017-11-16T19:33:23.977Z,56.40
2017-11-16T19:35:51.946Z,65.57
2017-11-16T19:38:19.815Z,60.77
2017-11-16T19:40:47.680Z,52.07
2017-11-16T19:43:15.547Z,56.50
2017-11-16T19:45:43.410Z,67.67
2017-11-16T19:48:11.280Z,53.87
2017-11-16T19:50:39.144Z,64.87
2017-11-16T19:53:07.013Z,54.20
2017-11-16T19:55:34.877Z,66.23
2017-11-16T19:58:02.744Z,57.10
2017-11-16T20:00:30.687Z,57.17
2017-11-16T20:02:58.559Z,57.90
2017-11-16T20:05:26.445Z,66.80
2017-11-16T20:07:54.414Z,62.13
2017-11-16T20:10:22.571Z,60.90
2017-11-16T20:12:50.455Z,70.10
2017-11-16T20:15:18.338Z,57.93
2017-11-16T20:17:46.289Z,54.07
2017-11-16T20:20:14.259Z,76.03
2017-11-16T20:22:42.136Z,75.47
2017-11-16T20:25:09.997Z,56.70
2017-11-16T20:27:37.858Z,60.67
2017-11-16T20:30:05.828Z,57.07
2017-11-16T20:32:33.693Z,71.57
2017-11-16T20:35:01.561Z,58.53
2017-11-16T20:40:42.873Z,61.40
2017-11-16T20:46:26.083Z,71.20
2017-11-16T20:49:14.485Z,58.57
2017-11-16T20:54:51.158Z,59.97
2017-11-16T20:57:18.697Z,74.87
2017-11-16T20:59:46.235Z,61.10
2017-11-16T21:02:13.857Z,55.30
2017-11-16T21:04:41.374Z,61.83
2017-11-16T21:07:08.945Z,85.77
2017-11-16T21:09:36.610Z,58.67
2017-11-16T21:12:04.122Z,82.93
2017-11-16T21:14:31.626Z,64.10
2017-11-16T21:16:59.157Z,62.27
2017-11-16T21:19:26.666Z,64.10
2017-11-16T21:21:54.155Z,79.40
2017-11-16T21:24:21.693Z,68.70
2017-11-16T21:26:49.189Z,68.00
2017-11-16T21:29:16.686Z,71.50
2017-11-16T21:31:44.221Z,66.10
2017-11-16T21:34:11.749Z,63.30
2017-11-16T21:36:39.335Z,64.20
2017-11-16T21:39:06.887Z,68.97
2017-11-16T21:41:34.375Z,60.63
2017-11-16T21:44:01.869Z,76.23
2017-11-16T21:46:29.422Z,82.03
2017-11-16T21:48:56.928Z,66.43
2017-11-16T21:51:24.428Z,59.17
2017-11-16T21:53:51.978Z,61.90
2017-11-16T21:56:19.483Z,69.43
2017-11-16T21:58:47.042Z,61.17
2017-11-16T22:01:14.724Z,75.23
2017-11-16T22:03:42.219Z,69.70
2017-11-16T22:06:09.731Z,67.90
2017-11-16T22:08:37.619Z,56.53
2017-11-16T22:11:05.120Z,78.37
2017-11-16T22:13:32.735Z,72.83
2017-11-16T22:16:00.286Z,78.57
2017-11-16T22:18:27.840Z,66.27
2017-11-16T22:20:55.333Z,61.23
2017-11-16T22:23:22.954Z,62.40
2017-11-16T22:25:50.452Z,69.77
2017-11-16T22:28:17.940Z,73.20
2017-11-16T22:30:45.489Z,67.37
2017-11-16T22:33:12.986Z,62.07
2017-11-16T22:35:40.486Z,155.57
2017-11-16T22:38:08.013Z,101.73
2017-11-16T22:40:35.510Z,74.30
2017-11-16T22:43:03.012Z,79.20
2017-11-16T22:45:30.591Z,81.90
2017-11-16T22:47:58.083Z,78.33
2017-11-16T22:50:25.603Z,63.60
2017-11-16T22:52:53.144Z,66.30
2017-11-16T22:55:20.637Z,63.20
2017-11-16T22:57:48.196Z,87.17
2017-11-16T23:00:15.740Z,60.80
2017-11-16T23:02:43.244Z,139.33
2017-11-16T23:05:10.743Z,66.07
2017-11-16T23:07:38.307Z,72.10
2017-11-16T23:10:05.874Z,73.60
2017-11-16T23:12:33.385Z,78.83
2017-11-16T23:15:00.929Z,82.00
2017-11-16T23:17:28.428Z,90.17
2017-11-16T23:19:55.917Z,69.20
2017-11-16T23:22:23.469Z,74.17
2017-11-16T23:24:50.969Z,80.37
2017-11-16T23:27:18.723Z,94.67
2017-11-16T23:29:46.276Z,74.97
2017-11-16T23:32:13.769Z,76.87
2017-11-16T23:34:41.271Z,72.93
2017-11-16T23:37:08.921Z,73.37
2017-11-16T23:39:36.481Z,91.47
2017-11-16T23:42:04.034Z,73.23
2017-11-16T23:44:31.537Z,81.77
2017-11-16T23:46:59.081Z,82.30
2017-11-16T23:49:26.584Z,83.97
2017-11-16T23:51:54.081Z,84.17
2017-11-16T23:54:21.600Z,82.73
2017-11-16T23:56:49.103Z,80.23
2017-11-16T23:59:16.601Z,77.20
